Time;durP1;ratioP1;P1;durP2;ratioP2;P2;SDS_P1;SDS_P2;PMS_P1;PMS_P2;Temp;Humidity;BMP_temperature;BMP_pressure;BME280_temperature;BME280_humidity;BME280_pressure;Samples;Min_cycle;Max_cycle;Signal;HPM_P1;HPM_P2
2023/04/10 00:02:18;;;;;;;15.67;12.00;;;;;;;10.59;46.82;98042.38;5040817;28;20453;-70
2023/04/10 00:04:44;;;;;;;15.57;11.87;;;;;;;10.59;46.72;98041.56;5043910;28;20274;-70
2023/04/10 00:07:10;;;;;;;17.27;12.43;;;;;;;10.50;46.84;98043.16;5045690;28;20217;-70
2023/04/10 00:09:35;;;;;;;19.17;13.13;;;;;;;10.46;46.83;98039.13;5050288;28;20448;-70
2023/04/10 00:12:01;;;;;;;17.33;11.43;;;;;;;10.29;47.21;98030.91;5048888;28;20266;-70
2023/04/10 00:14:26;;;;;;;14.53;11.53;;;;;;;10.20;47.60;98034.31;5054291;28;20647;-70
2023/04/10 00:16:51;;;;;;;15.73;12.50;;;;;;;10.26;47.60;98033.78;5058599;28;20189;-70
2023/04/10 00:19:17;;;;;;;14.77;11.60;;;;;;;10.23;47.45;98035.84;5057148;28;20203;-70
2023/04/10 00:21:43;;;;;;;17.30;12.70;;;;;;;10.16;47.75;98027.66;5055782;28;20219;-72
2023/04/10 00:24:08;;;;;;;13.87;11.57;;;;;;;10.18;47.86;98028.38;5049650;28;20190;-71
2023/04/10 00:26:34;;;;;;;16.73;12.40;;;;;;;10.16;47.67;98030.28;5048066;28;20192;-70
2023/04/10 00:29:00;;;;;;;15.03;12.40;;;;;;;10.02;48.11;98025.38;5045355;28;20230;-70
2023/04/10 00:31:26;;;;;;;14.40;11.37;;;;;;;9.98;48.09;98030.06;5038770;28;20808;-71
2023/04/10 00:33:51;;;;;;;15.83;11.90;;;;;;;9.95;48.01;98025.91;5047711;28;20460;-70
2023/04/10 00:36:17;;;;;;;14.60;11.80;;;;;;;9.90;48.36;98032.47;5044646;28;20194;-70
2023/04/10 00:38:43;;;;;;;16.37;11.73;;;;;;;9.87;48.34;98030.13;5059615;28;20225;-70
2023/04/10 00:41:08;;;;;;;17.30;12.50;;;;;;;9.88;48.48;98022.13;5054247;28;20448;-70
2023/04/10 00:43:34;;;;;;;16.80;12.10;;;;;;;9.76;48.15;98024.00;5063117;28;20231;-69
2023/04/10 00:46:00;;;;;;;15.33;11.70;;;;;;;9.73;48.64;98019.00;5050934;28;20188;-70
2023/04/10 00:48:25;;;;;;;15.47;11.50;;;;;;;9.75;48.45;98013.63;5055928;28;20655;-70
2023/04/10 00:50:51;;;;;;;17.20;12.30;;;;;;;9.72;48.86;98019.09;5048671;28;20421;-71
2023/04/10 00:53:16;;;;;;;15.00;12.30;;;;;;;9.72;48.79;98019.97;5047980;28;20179;-70
2023/04/10 00:55:42;;;;;;;18.70;11.50;;;;;;;9.58;49.03;98009.78;5050181;28;20175;-71
2023/04/10 00:58:12;;;;;;;18.03;11.90;;;;;;;9.70;48.95;98018.44;5036753;28;20586;-71
2023/04/10 01:00:37;;;;;;;14.73;11.30;;;;;;;9.64;48.77;98015.34;5038088;28;20457;-70
2023/04/10 01:03:03;;;;;;;19.70;12.10;;;;;;;9.64;48.83;98015.34;5040716;28;20470;-70
2023/04/10 01:05:34;;;;;;;17.07;12.23;;;;;;;9.61;49.00;98014.78;5044186;28;20183;-70
2023/04/10 01:08:11;;;;;;;15.37;12.00;;;;;;;9.60;48.97;98011.31;5057249;28;20216;-70
2023/04/10 01:11:12;;;;;;;14.77;11.07;;;;;;;9.57;48.48;98016.81;5044929;28;20955;-70
2023/04/10 01:13:42;;;;;;;15.80;12.50;;;;;;;9.53;48.86;98018.03;5014491;28;20434;-70
2023/04/10 01:16:12;;;;;;;16.30;12.13;;;;;;;9.51;48.73;98019.94;5036627;28;20422;-70
2023/04/10 01:18:42;;;;;;;14.90;11.40;;;;;;;9.40;48.96;98023.41;5039553;28;20449;-70
2023/04/10 01:21:10;;;;;;;15.07;11.43;;;;;;;9.37;49.07;98024.50;5046260;28;20430;-70
2023/04/10 01:23:52;;;;;;;18.70;12.47;;;;;;;9.30;49.36;98022.50;5043564;28;20766;-70
2023/04/10 01:26:30;;;;;;;17.50;12.90;;;;;;;9.32;49.54;98026.69;5048304;28;20977;-69
2023/04/10 01:29:00;;;;;;;16.83;12.50;;;;;;;9.26;49.29;98019.31;5048854;28;20444;-71
2023/04/10 01:31:36;;;;;;;14.50;11.80;;;;;;;9.33;49.01;98023.06;5049409;28;20529;-70
2023/04/10 01:34:09;;;;;;;16.53;11.77;;;;;;;9.32;49.08;98026.69;5045482;28;20441;-70
2023/04/10 01:37:01;;;;;;;16.73;12.53;;;;;;;9.21;49.37;98017.06;5047591;28;20422;-70
2023/04/10 01:39:27;;;;;;;16.80;12.73;;;;;;;9.15;49.39;98028.00;5048130;28;21541;-69
2023/04/10 01:41:53;;;;;;;15.53;11.80;;;;;;;9.22;48.86;98017.88;5044428;28;20830;-70
2023/04/10 01:44:24;;;;;;;16.93;12.43;;;;;;;9.14;49.39;98013.28;5047809;28;20444;-70
2023/04/10 01:46:51;;;;;;;16.20;11.70;;;;;;;9.09;49.35;98017.22;5048777;28;20449;-70
2023/04/10 01:49:17;;;;;;;17.17;12.30;;;;;;;9.06;49.57;98013.91;5045900;28;20449;-70
2023/04/10 01:51:44;;;;;;;15.00;12.07;;;;;;;9.13;49.92;98001.19;4982048;28;20428;-70
2023/04/10 01:54:09;;;;;;;15.97;11.50;;;;;;;9.01;49.61;98000.38;5058770;28;20201;-70
2023/04/10 01:56:35;;;;;;;17.20;12.50;;;;;;;8.98;49.45;98002.41;5039440;28;20473;-72
2023/04/10 01:59:02;;;;;;;28.67;13.10;;;;;;;8.93;49.61;98008.00;5055375;28;20210;-70
2023/04/10 02:01:28;;;;;;;17.30;12.80;;;;;;;9.00;49.79;98003.13;5055657;28;20211;-70
2023/04/10 02:03:54;;;;;;;17.77;13.30;;;;;;;9.05;49.59;98006.16;5028005;28;20476;-69
2023/04/10 02:06:33;;;;;;;17.07;12.40;;;;;;;8.98;49.87;97995.38;5029406;28;20841;-70
2023/04/10 02:09:08;;;;;;;17.23;12.03;;;;;;;8.88;49.23;97997.88;5020781;28;20446;-69
2023/04/10 02:11:50;;;;;;;16.57;12.37;;;;;;;8.78;50.09;98003.97;5039408;28;20765;-70
2023/04/10 02:14:19;;;;;;;16.53;12.40;;;;;;;8.67;50.09;97995.22;5048224;28;20466;-71
2023/04/10 02:16:45;;;;;;;17.80;11.73;;;;;;;8.62;50.93;97994.72;5046762;28;20418;-70
2023/04/10 02:19:11;;;;;;;17.37;13.27;;;;;;;8.69;50.34;97995.06;5049343;28;20494;-70
2023/04/10 02:21:38;;;;;;;17.07;12.73;;;;;;;8.69;50.63;98009.00;5047111;28;20858;-70
2023/04/10 02:24:05;;;;;;;18.80;12.80;;;;;;;8.69;50.21;98002.91;5043515;28;20481;-70
2023/04/10 02:26:46;;;;;;;16.73;12.27;;;;;;;8.67;50.98;98004.81;5048444;28;20418;-70
2023/04/10 02:29:11;;;;;;;18.20;13.30;;;;;;;8.60;50.69;98002.69;5043647;28;20438;-68
2023/04/10 02:31:37;;;;;;;18.10;13.33;;;;;;;8.52;50.82;98001.63;5049309;28;20459;-71
2023/04/10 02:34:02;;;;;;;18.20;11.47;;;;;;;8.52;50.66;98001.63;5054189;28;20198;-70
2023/04/10 02:36:28;;;;;;;19.53;13.10;;;;;;;8.52;50.59;97999.03;5055057;28;20736;-72
2023/04/10 02:38:54;;;;;;;18.13;13.40;;;;;;;8.59;50.80;98000.19;5053744;28;20671;-69
2023/04/10 02:41:19;;;;;;;14.90;12.10;;;;;;;8.54;51.10;98004.97;5056101;28;20489;-71
2023/04/10 02:43:45;;;;;;;18.40;12.17;;;;;;;8.51;50.47;98005.19;5051861;28;20181;-70
2023/04/10 02:46:10;;;;;;;15.50;12.47;;;;;;;8.53;50.74;98014.56;5052987;28;20194;-70
2023/04/10 02:48:36;;;;;;;18.67;13.17;;;;;;;8.45;50.56;98012.50;5035927;28;20203;-70
2023/04/10 02:51:01;;;;;;;15.33;11.47;;;;;;;8.48;50.54;98013.25;5043180;28;20209;-70
2023/04/10 02:53:27;;;;;;;19.43;13.00;;;;;;;8.41;51.11;98011.09;5041169;28;20190;-70
2023/04/10 02:55:53;;;;;;;18.17;13.20;;;;;;;8.44;50.92;98013.47;5041956;28;20211;-70
2023/04/10 02:58:20;;;;;;;18.50;13.17;;;;;;;8.41;50.54;98011.09;5052713;28;20209;-70
2023/04/10 03:00:50;;;;;;;21.17;12.87;;;;;;;8.39;51.01;98018.22;5030321;28;20441;-71
2023/04/10 03:03:18;;;;;;;18.10;13.00;;;;;;;8.37;50.84;98021.91;5043015;28;20492;-70
2023/04/10 03:05:45;;;;;;;18.30;12.23;;;;;;;8.36;50.92;98023.69;5039454;28;20431;-70
2023/04/10 03:08:12;;;;;;;18.43;13.03;;;;;;;8.39;50.61;98015.63;5045717;28;20433;-71
2023/04/10 03:10:37;;;;;;;16.73;12.40;;;;;;;8.29;50.85;98018.09;5038040;28;20425;-70
2023/04/10 03:13:03;;;;;;;17.47;12.20;;;;;;;8.13;51.24;98013.22;5048892;28;20486;-70
2023/04/10 03:15:28;;;;;;;16.40;11.87;;;;;;;8.03;51.87;98009.66;5059305;28;20186;-71
2023/04/10 03:17:54;;;;;;;19.20;12.67;;;;;;;8.09;52.26;98003.94;5037920;28;20191;-70
2023/04/10 03:20:19;;;;;;;18.70;12.17;;;;;;;8.15;52.02;97995.66;5053354;28;20557;-70
2023/04/10 03:22:45;;;;;;;17.40;11.60;;;;;;;8.22;51.64;97995.19;5043263;28;20593;-70
2023/04/10 03:25:10;;;;;;;16.40;12.30;;;;;;;8.32;51.47;98005.75;5042061;28;20222;-70
2023/04/10 03:27:35;;;;;;;15.30;11.27;;;;;;;8.35;51.16;97997.69;5039057;28;20183;-70
2023/04/10 03:30:01;;;;;;;18.33;12.37;;;;;;;8.26;51.12;97994.00;5034246;28;20200;-70
2023/04/10 03:32:29;;;;;;;16.90;12.63;;;;;;;8.26;51.36;97991.41;5038149;28;20656;-70
2023/04/10 03:34:56;;;;;;;20.23;12.13;;;;;;;8.30;51.46;97991.03;5030517;28;20271;-70
2023/04/10 03:37:21;;;;;;;17.80;12.13;;;;;;;8.32;50.95;97988.28;5039343;28;20422;-71
2023/04/10 03:39:46;;;;;;;18.00;12.80;;;;;;;8.35;51.08;97990.66;5031201;28;20468;-70
2023/04/10 03:42:12;;;;;;;17.67;12.57;;;;;;;8.35;50.78;97980.22;5042771;28;20288;-71
2023/04/10 03:44:37;;;;;;;19.10;13.00;;;;;;;8.14;51.87;97975.72;5052535;28;20273;-70
2023/04/10 03:47:03;;;;;;;18.80;12.70;;;;;;;8.19;52.17;97974.53;5037373;28;20222;-69
2023/04/10 03:49:28;;;;;;;18.23;12.70;;;;;;;8.14;51.84;97973.09;5039727;28;20227;-71
2023/04/10 03:51:54;;;;;;;17.77;12.20;;;;;;;8.14;51.85;97977.47;5039821;28;20207;-70
2023/04/10 03:54:19;;;;;;;18.60;12.70;;;;;;;8.13;52.00;97974.06;5042280;28;20182;-69
2023/04/10 03:56:45;;;;;;;15.73;11.73;;;;;;;8.10;52.04;97971.69;5042036;28;20274;-70
2023/04/10 03:59:10;;;;;;;15.83;12.00;;;;;;;8.07;51.64;97982.34;5039835;28;20214;-70
2023/04/10 04:01:36;;;;;;;16.90;12.00;;;;;;;8.03;52.24;97977.47;5039501;28;20203;-70
2023/04/10 04:04:01;;;;;;;16.10;11.90;;;;;;;7.98;51.79;97968.25;5046691;28;20213;-70
2023/04/10 04:06:26;;;;;;;16.80;11.97;;;;;;;7.98;52.35;97970.84;5042831;28;20652;-70
2023/04/10 04:08:52;;;;;;;18.77;12.07;;;;;;;8.00;51.58;97966.31;5046853;28;20564;-70
2023/04/10 04:11:17;;;;;;;17.60;12.50;;;;;;;8.03;52.03;97965.28;5047028;28;20262;-70
2023/04/10 04:13:43;;;;;;;19.00;12.10;;;;;;;8.00;51.74;97963.72;5043550;28;20210;-70
2023/04/10 04:16:09;;;;;;;19.73;11.30;;;;;;;7.91;51.98;97956.59;5035165;28;20218;-70
2023/04/10 04:18:34;;;;;;;20.10;13.40;;;;;;;7.90;51.98;97959.31;5039547;28;20199;-70
2023/04/10 04:21:00;;;;;;;16.50;11.83;;;;;;;7.94;52.29;97958.97;5046273;28;21234;-69
2023/04/10 04:23:25;;;;;;;18.93;12.77;;;;;;;7.95;51.42;97959.78;5052191;28;20211;-70
2023/04/10 04:25:53;;;;;;;17.60;12.47;;;;;;;7.95;51.73;97957.19;5045216;28;20213;-69
2023/04/10 04:28:18;;;;;;;18.00;13.17;;;;;;;7.97;51.70;97957.91;5049633;28;20180;-70
2023/04/10 04:30:44;;;;;;;18.50;13.03;;;;;;;7.97;51.53;97958.75;5050712;28;20428;-70
2023/04/10 04:33:09;;;;;;;17.60;12.90;;;;;;;7.97;51.60;97963.97;5050378;28;20187;-70
2023/04/10 04:35:35;;;;;;;18.10;12.83;;;;;;;7.88;52.12;97956.00;5051820;28;20239;-70
2023/04/10 04:38:00;;;;;;;18.10;12.80;;;;;;;7.88;52.01;97958.59;5057182;28;20187;-70
2023/04/10 04:40:26;;;;;;;16.90;12.10;;;;;;;7.90;52.58;97959.31;5061090;28;20204;-70
2023/04/10 04:42:51;;;;;;;20.00;13.53;;;;;;;7.90;53.00;97969.75;5050422;28;20207;-70
2023/04/10 04:45:17;;;;;;;16.70;12.57;;;;;;;7.84;52.23;97960.63;5057382;28;20186;-70
2023/04/10 04:47:42;;;;;;;19.17;13.07;;;;;;;7.92;52.86;97962.66;5058380;28;20187;-71
2023/04/10 04:50:08;;;;;;;18.20;12.80;;;;;;;7.95;52.17;97962.41;5034911;28;20204;-70
2023/04/10 04:52:34;;;;;;;17.03;11.73;;;;;;;7.94;53.05;97956.34;5056177;28;20210;-71
2023/04/10 04:54:59;;;;;;;16.60;11.80;;;;;;;7.95;53.12;97957.19;5048841;28;20214;-68
2023/04/10 04:57:25;;;;;;;16.13;11.70;;;;;;;8.00;52.86;97957.66;5039275;28;20187;-70
2023/04/10 04:59:50;;;;;;;14.90;11.47;;;;;;;8.03;52.35;97959.19;5054138;28;20202;-69
2023/04/10 05:02:17;;;;;;;17.57;12.53;;;;;;;8.09;52.32;97956.94;5055210;28;20209;-71
2023/04/10 05:04:43;;;;;;;19.03;12.83;;;;;;;8.07;52.59;97958.84;5049725;28;20183;-70
2023/04/10 05:07:09;;;;;;;16.73;12.00;;;;;;;8.13;52.50;97966.22;5048687;28;20512;-71
2023/04/10 05:09:34;;;;;;;18.27;12.47;;;;;;;8.20;52.79;97956.13;5047095;28;20942;-68
2023/04/10 05:12:00;;;;;;;17.73;12.73;;;;;;;8.17;52.10;97955.53;5040416;28;20187;-70
2023/04/10 05:14:25;;;;;;;18.27;11.97;;;;;;;8.27;53.28;97966.94;5060759;28;20167;-69
2023/04/10 05:16:51;;;;;;;18.60;12.47;;;;;;;8.29;52.82;97960.63;5046810;28;20264;-70
2023/04/10 05:19:16;;;;;;;15.93;12.07;;;;;;;8.36;52.63;97961.00;5059524;28;20675;-69
2023/04/10 05:21:42;;;;;;;18.77;13.13;;;;;;;8.39;52.38;97958.16;5048759;28;20275;-71
2023/04/10 05:24:08;;;;;;;15.97;11.17;;;;;;;8.40;52.32;97959.81;5047217;28;20187;-70
2023/04/10 05:26:33;;;;;;;15.87;11.47;;;;;;;8.46;53.01;97961.94;5031894;28;20699;-71
2023/04/10 05:28:59;;;;;;;16.63;11.80;;;;;;;8.54;52.68;97963.97;5043389;28;20521;-70
2023/04/10 05:31:24;;;;;;;16.70;12.27;;;;;;;8.63;53.10;97975.50;5040692;28;20195;-69
2023/04/10 05:33:50;;;;;;;15.77;11.77;;;;;;;8.71;52.39;97975.69;5052256;28;20582;-70
2023/04/10 05:36:17;;;;;;;18.90;13.70;;;;;;;8.74;52.34;97974.66;5044605;28;20326;-69
2023/04/10 05:38:42;;;;;;;18.07;12.13;;;;;;;8.70;53.34;97968.81;5050644;28;20562;-70
2023/04/10 05:41:08;;;;;;;17.67;11.67;;;;;;;8.78;53.34;97952.53;5056304;28;20432;-69
2023/04/10 05:43:33;;;;;;;16.67;10.63;;;;;;;8.88;53.20;97960.47;5046728;28;20265;-70
2023/04/10 05:45:58;;;;;;;18.97;11.17;;;;;;;8.95;53.25;97966.84;5049651;28;20202;-70
2023/04/10 05:48:25;;;;;;;15.63;11.20;;;;;;;9.02;52.59;97960.19;5040007;28;20921;-70
2023/04/10 05:50:51;;;;;;;15.23;11.83;;;;;;;9.05;51.93;97959.94;5049463;28;20206;-69
2023/04/10 05:53:19;;;;;;;14.90;11.77;;;;;;;9.11;50.78;97963.00;5040700;28;20460;-70
2023/04/10 05:55:44;;;;;;;16.30;10.97;;;;;;;9.22;50.54;97965.56;5061084;28;20432;-70
2023/04/10 05:58:09;;;;;;;18.13;12.20;;;;;;;9.26;50.59;97968.78;5049816;28;20548;-70
2023/04/10 06:00:35;;;;;;;14.63;11.27;;;;;;;9.31;50.47;97967.47;5022799;28;20176;-71
2023/04/10 06:03:02;;;;;;;15.40;11.63;;;;;;;9.44;50.22;97964.66;5048502;28;20699;-71
2023/04/10 06:05:27;;;;;;;16.83;11.77;;;;;;;9.58;50.31;97968.72;5051981;28;20424;-70
2023/04/10 06:07:53;;;;;;;14.83;11.37;;;;;;;9.72;49.85;97969.38;5050720;28;20422;-69
2023/04/10 06:10:18;;;;;;;15.30;11.77;;;;;;;9.86;48.91;97966.44;5044134;28;20237;-70
2023/04/10 06:12:44;;;;;;;14.60;11.00;;;;;;;9.93;48.75;97967.59;5052809;28;20672;-70
2023/04/10 06:15:10;;;;;;;12.87;10.40;;;;;;;10.04;47.86;97969.28;5052332;28;20689;-70
2023/04/10 06:17:43;;;;;;;15.60;11.17;;;;;;;10.10;47.54;97968.78;5048581;28;20189;-71
2023/04/10 06:20:09;;;;;;;16.27;12.03;;;;;;;10.20;47.83;97970.59;5047238;28;20268;-71
2023/04/10 06:22:34;;;;;;;14.60;11.40;;;;;;;10.24;47.70;97958.91;5041576;28;20854;-69
2023/04/10 06:25:00;;;;;;;15.20;11.47;;;;;;;10.30;46.77;97964.44;5048969;28;20429;-70
2023/04/10 06:27:26;;;;;;;15.40;11.27;;;;;;;10.41;47.11;97967.97;5055040;28;20386;-70
2023/04/10 06:29:52;;;;;;;13.50;10.90;;;;;;;10.47;46.76;97967.41;5056664;28;20205;-70
2023/04/10 06:32:17;;;;;;;14.57;10.93;;;;;;;10.53;46.84;97964.28;5046241;28;20430;-69
2023/04/10 06:34:43;;;;;;;14.33;11.93;;;;;;;10.55;46.69;97967.59;5045864;28;20210;-70
2023/04/10 06:37:08;;;;;;;13.80;10.70;;;;;;;10.68;46.49;97967.34;5048069;28;20317;-68
2023/04/10 06:39:33;;;;;;;13.87;10.50;;;;;;;10.63;45.87;97966.09;5047711;28;20253;-69
2023/04/10 06:42:00;;;;;;;18.40;11.37;;;;;;;10.77;46.09;97965.72;5047024;28;20722;-71
2023/04/10 06:44:25;;;;;;;15.87;11.77;;;;;;;10.75;45.83;97967.63;5062916;28;20285;-71
2023/04/10 06:46:50;;;;;;;15.77;10.60;;;;;;;10.86;45.54;97964.91;5053455;28;20508;-70
2023/04/10 06:49:16;;;;;;;14.27;10.87;;;;;;;11.08;45.69;97963.00;5037860;28;20340;-70
2023/04/10 06:51:41;;;;;;;12.07;10.13;;;;;;;11.32;45.09;97965.22;5046704;28;20210;-69
2023/04/10 06:54:07;;;;;;;13.87;10.87;;;;;;;11.48;44.62;97962.03;5052636;28;20731;-70
2023/04/10 06:56:32;;;;;;;13.37;10.53;;;;;;;11.66;43.61;97964.75;5051879;28;20579;-70
2023/04/10 06:58:58;;;;;;;11.97;9.80;;;;;;;11.87;43.10;97957.69;5052549;28;20253;-68
2023/04/10 07:01:23;;;;;;;11.50;9.77;;;;;;;12.14;43.05;97949.88;5053913;28;20285;-70
2023/04/10 07:03:48;;;;;;;11.80;9.40;;;;;;;12.39;42.58;97955.47;5056271;28;20202;-70
2023/04/10 07:06:14;;;;;;;12.20;9.80;;;;;;;12.58;41.57;97940.56;5043910;28;20217;-69
2023/04/10 07:08:40;;;;;;;16.23;10.40;;;;;;;12.80;41.07;97936.69;5035673;28;20740;-70
2023/04/10 07:11:05;;;;;;;12.30;9.50;;;;;;;13.03;40.02;97942.34;5042313;28;20621;-70
2023/04/10 07:13:31;;;;;;;11.37;9.40;;;;;;;12.86;39.99;97937.88;5051757;28;20179;-70
2023/04/10 07:15:56;;;;;;;13.70;9.13;;;;;;;13.20;39.98;97935.41;5046076;28;20578;-71
2023/04/10 07:18:21;;;;;;;10.60;8.70;;;;;;;13.26;39.26;97935.81;5053391;28;20186;-70
2023/04/10 07:20:48;;;;;;;11.83;10.00;;;;;;;13.49;38.55;97930.91;5055695;28;20261;-72
2023/04/10 07:23:14;;;;;;;8.73;7.83;;;;;;;13.54;39.01;97931.28;5050938;28;20215;-69
2023/04/10 07:25:42;;;;;;;10.83;8.50;;;;;;;13.78;38.52;97928.00;5045734;28;20547;-71
2023/04/10 07:28:07;;;;;;;11.63;9.00;;;;;;;14.04;37.72;97934.22;5044076;28;20178;-70
2023/04/10 07:30:32;;;;;;;9.70;7.60;;;;;;;14.16;37.25;97934.78;5046353;28;20441;-73
2023/04/10 07:32:58;;;;;;;9.30;7.93;;;;;;;14.28;36.90;97942.25;5049806;28;20188;-70
2023/04/10 07:35:24;;;;;;;8.63;7.70;;;;;;;14.50;36.11;97945.31;5054383;28;20210;-69
2023/04/10 07:37:51;;;;;;;8.60;7.27;;;;;;;14.49;36.37;97941.00;5036395;28;20715;-70
2023/04/10 07:40:16;;;;;;;8.97;7.50;;;;;;;14.53;35.22;97939.72;5036333;28;20226;-69
2023/04/10 07:42:42;;;;;;;8.37;7.03;;;;;;;14.43;34.98;97934.56;5038073;28;20450;-69
2023/04/10 07:45:08;;;;;;;8.43;7.03;;;;;;;14.85;35.09;97940.84;5044685;28;20247;-71
2023/04/10 07:47:33;;;;;;;7.13;6.43;;;;;;;15.08;34.18;97940.22;5046748;28;20272;-69
2023/04/10 07:49:59;;;;;;;7.07;5.90;;;;;;;15.22;32.87;97941.38;5049994;28;20667;-69
2023/04/10 07:52:24;;;;;;;7.40;6.03;;;;;;;15.45;32.32;97935.44;5042931;28;20727;-70
2023/04/10 07:54:50;;;;;;;6.90;5.80;;;;;;;15.58;32.30;97933.13;5042025;28;20188;-71
2023/04/10 07:57:15;;;;;;;6.80;6.10;;;;;;;15.80;32.05;97939.53;5040212;28;20407;-70
2023/04/10 07:59:41;;;;;;;6.07;5.47;;;;;;;15.91;31.00;97929.63;5053943;28;20203;-71
2023/04/10 08:02:06;;;;;;;6.83;6.13;;;;;;;15.59;31.27;97945.34;5051671;28;20891;-71
2023/04/10 08:04:32;;;;;;;7.23;6.53;;;;;;;15.77;31.58;97933.75;5040848;28;20632;-71
2023/04/10 08:06:57;;;;;;;7.80;6.10;;;;;;;15.86;31.39;97931.97;5043210;28;20529;-70
2023/04/10 08:09:22;;;;;;;8.93;5.80;;;;;;;15.90;30.90;97922.69;5041100;28;20310;-70
2023/04/10 08:11:48;;;;;;;5.60;5.10;;;;;;;16.30;31.07;97928.84;5054850;28;20262;-72
2023/04/10 08:14:13;;;;;;;5.67;5.17;;;;;;;16.06;30.11;97927.13;5055450;28;20662;-70
2023/04/10 08:16:39;;;;;;;5.63;5.13;;;;;;;16.27;30.89;97919.44;5043316;28;20336;-70
2023/04/10 08:19:04;;;;;;;6.43;5.40;;;;;;;16.56;30.70;97919.81;5050538;28;20205;-71
2023/04/10 08:21:33;;;;;;;5.00;4.50;;;;;;;16.79;29.47;97916.38;5050947;28;20655;-70
2023/04/10 08:24:00;;;;;;;5.97;5.37;;;;;;;16.72;29.71;97917.09;5042575;28;20187;-71
2023/04/10 08:26:27;;;;;;;7.30;5.17;;;;;;;16.68;29.37;97914.97;5052893;28;20425;-70
2023/04/10 08:28:53;;;;;;;5.90;5.30;;;;;;;16.84;29.54;97914.84;5045097;28;20434;-71
2023/04/10 08:31:20;;;;;;;5.90;5.30;;;;;;;17.00;29.24;97919.28;5043311;28;20464;-71
2023/04/10 08:33:46;;;;;;;5.07;4.57;;;;;;;17.18;28.89;97923.44;5058387;28;20436;-71
2023/04/10 08:36:12;;;;;;;6.87;5.00;;;;;;;16.44;29.99;97922.03;5035162;28;20426;-70
2023/04/10 08:38:41;;;;;;;5.67;5.00;;;;;;;17.15;29.33;97921.97;5038183;28;20233;-72
2023/04/10 08:41:10;;;;;;;7.43;4.83;;;;;;;17.43;29.09;97923.22;5051345;28;20441;-70
2023/04/10 08:43:35;;;;;;;6.53;5.27;;;;;;;17.54;28.39;97911.41;5051100;28;20453;-69
2023/04/10 08:46:01;;;;;;;6.57;5.37;;;;;;;17.55;28.96;97921.81;5042409;28;20496;-70
2023/04/10 08:48:31;;;;;;;5.07;4.67;;;;;;;17.90;28.22;97911.50;5035202;28;20190;-70
2023/04/10 08:51:00;;;;;;;6.10;5.50;;;;;;;18.23;28.82;97897.09;5049363;28;20236;-70
2023/04/10 08:53:28;;;;;;;5.07;4.60;;;;;;;18.33;28.01;97907.44;5049427;28;20451;-70
2023/04/10 08:55:53;;;;;;;7.00;5.70;;;;;;;18.46;28.06;97910.25;5049077;28;20808;-69
2023/04/10 08:58:19;;;;;;;6.20;5.60;;;;;;;18.42;28.36;97908.97;5047683;28;20459;-70
2023/04/10 09:00:44;;;;;;;5.60;5.10;;;;;;;18.46;28.34;97902.28;5045796;28;20791;-71
2023/04/10 09:03:13;;;;;;;5.40;4.87;;;;;;;18.54;28.07;97906.66;5048922;28;20218;-70
2023/04/10 09:05:39;;;;;;;5.60;5.00;;;;;;;18.60;28.10;97897.94;5042652;28;20665;-70
2023/04/10 09:08:06;;;;;;;5.37;4.80;;;;;;;19.12;28.44;97898.72;5047538;28;20430;-71
2023/04/10 09:10:32;;;;;;;5.03;4.53;;;;;;;19.43;27.57;97902.06;5038119;28;20195;-71
2023/04/10 09:12:57;;;;;;;4.53;4.13;;;;;;;19.43;26.60;97905.50;5053593;28;20413;-70
2023/04/10 09:15:23;;;;;;;4.90;4.43;;;;;;;19.17;27.07;97906.94;5051163;28;20257;-70
2023/04/10 09:17:57;;;;;;;5.23;4.73;;;;;;;19.37;26.77;97903.63;5057522;28;20710;-70
2023/04/10 09:20:23;;;;;;;4.53;3.80;;;;;;;19.40;26.09;97897.94;5048535;28;20214;-70
2023/04/10 09:22:49;;;;;;;4.03;3.63;;;;;;;19.87;25.92;97897.47;5050500;28;20503;-71
2023/04/10 09:25:29;;;;;;;4.47;3.30;;;;;;;20.32;25.83;97889.13;5047378;28;21118;-71
2023/04/10 09:28:05;;;;;;;4.17;3.77;;;;;;;20.26;25.61;97894.19;5047175;28;20190;-71
2023/04/10 09:30:34;;;;;;;4.30;3.90;;;;;;;20.60;25.00;97881.03;5048610;28;20449;-71
2023/04/10 09:33:00;;;;;;;4.90;3.67;;;;;;;20.89;24.77;97879.09;5045859;28;20430;-71
2023/04/10 09:35:37;;;;;;;6.40;3.87;;;;;;;20.31;24.20;97882.16;5048468;28;21307;-71
2023/04/10 09:38:15;;;;;;;3.90;3.60;;;;;;;19.98;24.48;97861.50;5046733;28;20198;-71
2023/04/10 09:40:41;;;;;;;4.10;3.70;;;;;;;20.03;24.91;97862.59;5046932;28;20413;-71
2023/04/10 09:43:37;;;;;;;4.17;3.73;;;;;;;19.77;25.60;97866.72;5053578;28;20479;-70
2023/04/10 09:46:03;;;;;;;13.33;3.80;;;;;;;20.18;24.31;97861.63;5039886;28;20191;-70
2023/04/10 09:48:28;;;;;;;3.70;3.40;;;;;;;20.13;24.46;97848.09;5047636;28;20442;-72
2023/04/10 09:50:54;;;;;;;3.30;3.07;;;;;;;20.43;24.04;97840.63;5049553;28;20211;-71
2023/04/10 09:53:19;;;;;;;3.80;3.50;;;;;;;20.48;23.99;97840.84;5041520;28;20183;-71
2023/04/10 09:55:48;;;;;;;3.80;3.43;;;;;;;20.74;23.70;97833.94;5051502;28;20604;-72
2023/04/10 09:58:15;;;;;;;3.50;3.20;;;;;;;21.07;22.63;97827.03;5056880;28;20203;-70
2023/04/10 10:00:46;;;;;;;2.87;2.67;;;;;;;21.24;23.03;97828.25;5049279;28;20414;-69
2023/04/10 10:03:17;;;;;;;3.30;3.00;;;;;;;20.69;23.29;97831.06;5047836;28;20511;-69
2023/04/10 10:05:45;;;;;;;3.27;2.97;;;;;;;20.36;23.00;97823.81;5046590;28;20421;-70
2023/04/10 10:08:12;;;;;;;9.23;2.80;;;;;;;20.85;22.93;97808.56;5047587;28;20565;-71
2023/04/10 10:10:41;;;;;;;3.03;2.73;;;;;;;20.51;23.31;97813.81;5036083;28;20503;-70
2023/04/10 10:13:07;;;;;;;3.13;2.83;;;;;;;21.12;23.01;97808.59;5044822;28;20502;-73
2023/04/10 10:15:45;;;;;;;3.13;2.83;;;;;;;21.62;21.72;97803.63;5054175;28;20921;-70
2023/04/10 10:18:26;;;;;;;3.07;2.80;;;;;;;21.47;21.63;97795.00;5052211;28;21184;-70
2023/04/10 10:20:52;;;;;;;2.80;2.60;;;;;;;21.71;22.03;97796.22;5052035;28;20825;-71
2023/04/10 10:23:18;;;;;;;2.60;2.40;;;;;;;21.70;21.64;97804.41;5047041;28;20453;-70
2023/04/10 10:25:44;;;;;;;2.70;2.50;;;;;;;21.54;21.45;97795.84;5059041;28;20432;-70
2023/04/10 10:28:12;;;;;;;2.57;2.37;;;;;;;21.51;21.17;97790.91;5053548;28;20846;-70
2023/04/10 10:30:37;;;;;;;2.73;2.53;;;;;;;21.73;21.34;97780.00;5054124;28;21505;-70
2023/04/10 10:33:06;;;;;;;2.60;2.40;;;;;;;22.00;21.14;97766.56;5048722;28;20425;-71
2023/04/10 10:35:31;;;;;;;2.70;2.50;;;;;;;22.30;21.20;97763.34;5047886;28;20175;-71
2023/04/10 10:37:58;;;;;;;2.50;2.30;;;;;;;21.84;20.70;97760.66;5056988;28;20925;-68
2023/04/10 10:40:27;;;;;;;2.30;2.10;;;;;;;21.96;20.64;97757.34;5053859;28;20206;-71
2023/04/10 10:43:11;;;;;;;2.90;2.70;;;;;;;22.45;20.98;97763.88;5024291;28;20457;-72
2023/04/10 10:45:41;;;;;;;2.20;2.00;;;;;;;22.90;20.57;97751.44;5052556;28;20455;-71
2023/04/10 10:48:07;;;;;;;2.40;2.20;;;;;;;23.01;19.71;97748.06;5054443;28;20418;-71
2023/04/10 10:50:50;;;;;;;2.53;2.33;;;;;;;23.10;19.51;97746.72;5047464;28;20988;-71
2023/04/10 10:53:41;;;;;;;2.20;2.00;;;;;;;22.75;19.89;97749.91;5048783;28;20182;-70
2023/04/10 10:56:18;;;;;;;2.30;2.10;;;;;;;22.05;19.89;97743.56;5045617;28;20934;-71
2023/04/10 10:58:53;;;;;;;1.90;1.80;;;;;;;22.23;19.84;97736.69;5055982;28;20442;-69
2023/04/10 11:01:20;;;;;;;2.37;2.17;;;;;;;22.17;19.66;97740.19;5048398;28;20436;-70
2023/04/10 11:03:46;;;;;;;2.23;2.07;;;;;;;22.04;20.04;97744.56;5044654;28;20452;-71
2023/04/10 11:06:18;;;;;;;2.60;2.40;;;;;;;22.32;19.97;97735.41;5048513;28;20509;-71
2023/04/10 11:08:49;;;;;;;2.97;1.90;;;;;;;22.59;20.27;97729.91;5052706;28;20706;-70
2023/04/10 11:11:22;;;;;;;2.40;2.20;;;;;;;22.77;20.29;97729.13;5056488;28;20789;-70
2023/04/10 11:13:50;;;;;;;1.90;1.80;;;;;;;22.96;19.63;97729.16;5049229;28;21050;-71
2023/04/10 11:16:16;;;;;;;1.80;1.70;;;;;;;23.38;19.54;97724.06;5059376;28;20429;-71
2023/04/10 11:18:45;;;;;;;2.30;2.10;;;;;;;23.57;18.62;97724.06;5048857;28;20456;-71
2023/04/10 11:21:12;;;;;;;2.17;1.80;;;;;;;23.63;17.76;97720.50;5064943;28;20651;-71
2023/04/10 11:23:58;;;;;;;2.30;2.10;;;;;;;23.93;18.58;97712.50;5042527;28;20811;-72
2023/04/10 11:26:41;;;;;;;1.80;1.70;;;;;;;24.23;18.04;97713.56;5049760;28;20425;-71
2023/04/10 11:29:16;;;;;;;3.07;2.77;;;;;;;24.12;18.02;97715.19;5044314;28;21247;-72